Welberg, Netherlands
Current Conditions -  °F | °C
As of 3:33 PM on Thursday 29 Jan 2015 (Local Time) from EHWO Reporting Station
Scattered Clouds Scattered Clouds  
Wind Chill: 33°   Ceiling: Unl
Heat Index: 41°   Visibility: 6mi
Dew Point: 36°   Wind: 14mph
Humidity: 81%   Direction: 210°SSW
Pressure: 28.91"   Gusts: NA
Location:  51.58°N, 4.33°E
Report Text: EHWO 291433Z AUTO 21012KT 9999 FEW018 SCT030 05/02 Q0979 REDZ BLU
Loading
Personal Weather Stations






























Interactive Weather Map New forecast layout! Learn more

10-Day Weather Forecast

Advertisements
Track Severe Weather on mobile